sensor_id;sensor_type;location;lat;lon;timestamp;pressure;altitude;pressure_sealevel;temperature;humidity
33286;BME280;19656;50.096;20.014;2023-06-24T00:02:25;99062.27;;;22.43;70.25
33286;BME280;19656;50.096;20.014;2023-06-24T00:07:29;99053.61;;;22.48;70.05
33286;BME280;19656;50.096;20.014;2023-06-24T00:12:32;99057.88;;;22.47;69.53
33286;BME280;19656;50.096;20.014;2023-06-24T00:17:36;99062.77;;;22.43;69.22
33286;BME280;19656;50.096;20.014;2023-06-24T00:22:39;99067.02;;;22.37;68.84
33286;BME280;19656;50.096;20.014;2023-06-24T00:27:49;99065.52;;;22.28;68.68
33286;BME280;19656;50.096;20.014;2023-06-24T00:32:53;99063.71;;;22.22;68.63
33286;BME280;19656;50.096;20.014;2023-06-24T00:37:56;99064.14;;;22.19;68.43
33286;BME280;19656;50.096;20.014;2023-06-24T00:43:03;99063.86;;;22.20;67.94
33286;BME280;19656;50.096;20.014;2023-06-24T00:50:45;99058.77;;;22.17;67.70
33286;BME280;19656;50.096;20.014;2023-06-24T00:55:49;99061.06;;;22.06;67.73
33286;BME280;19656;50.096;20.014;2023-06-24T01:00:52;99064.15;;;22.01;67.56
33286;BME280;19656;50.096;20.014;2023-06-24T01:06:02;99065.64;;;22.01;67.66
33286;BME280;19656;50.096;20.014;2023-06-24T01:11:05;99071.33;;;22.00;67.41
33286;BME280;19656;50.096;20.014;2023-06-24T01:16:15;99073.77;;;21.99;67.08
33286;BME280;19656;50.096;20.014;2023-06-24T01:21:42;99068.78;;;21.93;66.72
33286;BME280;19656;50.096;20.014;2023-06-24T01:32:38;99073.43;;;21.79;66.36
33286;BME280;19656;50.096;20.014;2023-06-24T01:37:47;99079.45;;;21.73;66.45
33286;BME280;19656;50.096;20.014;2023-06-24T01:42:57;99080.38;;;21.66;66.53
33286;BME280;19656;50.096;20.014;2023-06-24T01:48:15;99081.05;;;21.67;66.64
33286;BME280;19656;50.096;20.014;2023-06-24T01:53:19;99085.85;;;21.67;66.47
33286;BME280;19656;50.096;20.014;2023-06-24T01:58:24;99100.38;;;21.65;66.38
33286;BME280;19656;50.096;20.014;2023-06-24T02:03:29;99099.05;;;21.62;66.46
33286;BME280;19656;50.096;20.014;2023-06-24T02:08:37;99096.52;;;21.54;66.55
33286;BME280;19656;50.096;20.014;2023-06-24T02:13:42;99108.17;;;21.49;66.65
33286;BME280;19656;50.096;20.014;2023-06-24T02:18:50;99104.91;;;21.44;66.71
33286;BME280;19656;50.096;20.014;2023-06-24T02:23:55;99107.77;;;21.48;66.68
33286;BME280;19656;50.096;20.014;2023-06-24T02:50:47;99102.79;;;21.46;66.08
33286;BME280;19656;50.096;20.014;2023-06-24T02:55:51;99110.04;;;21.40;66.04
33286;BME280;19656;50.096;20.014;2023-06-24T03:00:54;99110.70;;;21.39;66.15
33286;BME280;19656;50.096;20.014;2023-06-24T03:06:20;99100.06;;;21.45;65.89
33286;BME280;19656;50.096;20.014;2023-06-24T03:11:29;99102.96;;;21.49;65.71
33286;BME280;19656;50.096;20.014;2023-06-24T03:16:46;99105.16;;;21.50;65.43
33286;BME280;19656;50.096;20.014;2023-06-24T03:21:52;99109.30;;;21.51;65.69
33286;BME280;19656;50.096;20.014;2023-06-24T03:26:56;99100.29;;;21.58;66.10
33286;BME280;19656;50.096;20.014;2023-06-24T03:32:03;99100.16;;;21.62;65.96
33286;BME280;19656;50.096;20.014;2023-06-24T03:37:07;99098.20;;;21.60;65.64
33286;BME280;19656;50.096;20.014;2023-06-24T03:42:12;99103.14;;;21.66;66.18
33286;BME280;19656;50.096;20.014;2023-06-24T03:50:46;99108.54;;;21.73;65.57
33286;BME280;19656;50.096;20.014;2023-06-24T03:55:49;99107.25;;;21.75;65.44
33286;BME280;19656;50.096;20.014;2023-06-24T04:00:53;99109.64;;;21.83;65.46
33286;BME280;19656;50.096;20.014;2023-06-24T04:06:01;99116.46;;;21.87;64.94
33286;BME280;19656;50.096;20.014;2023-06-24T04:11:07;99122.30;;;21.78;64.74
33286;BME280;19656;50.096;20.014;2023-06-24T04:16:11;99126.56;;;21.68;64.66
33286;BME280;19656;50.096;20.014;2023-06-24T04:21:14;99126.51;;;21.60;64.89
33286;BME280;19656;50.096;20.014;2023-06-24T04:26:18;99131.91;;;21.52;65.15
33286;BME280;19656;50.096;20.014;2023-06-24T04:31:21;99135.66;;;21.47;65.63
33286;BME280;19656;50.096;20.014;2023-06-24T04:36:25;99146.67;;;21.51;65.71
33286;BME280;19656;50.096;20.014;2023-06-24T04:41:28;99151.81;;;21.52;65.41
33286;BME280;19656;50.096;20.014;2023-06-24T04:46:32;99165.15;;;21.50;65.36
33286;BME280;19656;50.096;20.014;2023-06-24T04:51:38;99169.48;;;21.47;65.44
33286;BME280;19656;50.096;20.014;2023-06-24T04:56:43;99170.28;;;21.41;65.63
33286;BME280;19656;50.096;20.014;2023-06-24T05:01:51;99176.52;;;21.37;65.98
33286;BME280;19656;50.096;20.014;2023-06-24T05:06:55;99183.55;;;21.29;66.43
33286;BME280;19656;50.096;20.014;2023-06-24T05:11:58;99183.35;;;21.24;67.72
33286;BME280;19656;50.096;20.014;2023-06-24T05:17:03;99187.34;;;21.24;68.22
33286;BME280;19656;50.096;20.014;2023-06-24T05:22:08;99196.69;;;21.19;68.42
33286;BME280;19656;50.096;20.014;2023-06-24T05:27:12;99198.64;;;21.13;68.94
33286;BME280;19656;50.096;20.014;2023-06-24T05:32:15;99200.52;;;21.09;69.19
33286;BME280;19656;50.096;20.014;2023-06-24T05:37:20;99204.18;;;21.01;69.78
33286;BME280;19656;50.096;20.014;2023-06-24T05:42:23;99201.05;;;20.91;70.53
33286;BME280;19656;50.096;20.014;2023-06-24T05:47:28;99204.41;;;20.83;71.08
33286;BME280;19656;50.096;20.014;2023-06-24T05:52:32;99206.65;;;20.82;71.47
33286;BME280;19656;50.096;20.014;2023-06-24T05:57:35;99207.48;;;20.83;71.71
33286;BME280;19656;50.096;20.014;2023-06-24T06:50:46;99234.48;;;21.19;75.18
33286;BME280;19656;50.096;20.014;2023-06-24T06:55:49;99235.27;;;21.21;75.35
33286;BME280;19656;50.096;20.014;2023-06-24T07:00:52;99239.73;;;21.36;75.06
33286;BME280;19656;50.096;20.014;2023-06-24T07:05:56;99242.71;;;21.40;74.63
33286;BME280;19656;50.096;20.014;2023-06-24T07:10:59;99248.66;;;21.40;74.76
33286;BME280;19656;50.096;20.014;2023-06-24T07:16:03;99256.10;;;21.43;75.01
33286;BME280;19656;50.096;20.014;2023-06-24T07:21:06;99257.62;;;21.48;74.47
33286;BME280;19656;50.096;20.014;2023-06-24T07:26:09;99264.16;;;21.53;74.56
33286;BME280;19656;50.096;20.014;2023-06-24T07:31:13;99271.91;;;21.58;74.11
33286;BME280;19656;50.096;20.014;2023-06-24T07:36:16;99271.12;;;21.57;73.72
33286;BME280;19656;50.096;20.014;2023-06-24T07:41:19;99271.06;;;21.58;73.25
33286;BME280;19656;50.096;20.014;2023-06-24T07:46:22;99277.97;;;21.64;72.89
33286;BME280;19656;50.096;20.014;2023-06-24T07:51:27;99285.64;;;21.75;71.94
33286;BME280;19656;50.096;20.014;2023-06-24T07:56:30;99293.42;;;21.76;71.60
33286;BME280;19656;50.096;20.014;2023-06-24T08:01:33;99303.48;;;21.74;71.27
33286;BME280;19656;50.096;20.014;2023-06-24T08:06:37;99315.39;;;21.69;70.92
33286;BME280;19656;50.096;20.014;2023-06-24T08:11:40;99314.77;;;21.59;70.95
33286;BME280;19656;50.096;20.014;2023-06-24T08:16:45;99317.44;;;21.58;70.51
33286;BME280;19656;50.096;20.014;2023-06-24T08:21:48;99324.17;;;21.61;70.64
33286;BME280;19656;50.096;20.014;2023-06-24T08:26:51;99330.00;;;21.67;69.82
33286;BME280;19656;50.096;20.014;2023-06-24T08:31:56;99335.31;;;21.62;69.38
33286;BME280;19656;50.096;20.014;2023-06-24T08:36:59;99348.22;;;21.56;69.40
33286;BME280;19656;50.096;20.014;2023-06-24T08:42:03;99352.39;;;21.46;69.41
33286;BME280;19656;50.096;20.014;2023-06-24T08:47:06;99355.98;;;21.41;69.53
33286;BME280;19656;50.096;20.014;2023-06-24T08:52:14;99359.69;;;21.44;69.04
33286;BME280;19656;50.096;20.014;2023-06-24T08:57:17;99369.56;;;21.43;69.09
33286;BME280;19656;50.096;20.014;2023-06-24T09:02:21;99372.87;;;21.37;69.31
33286;BME280;19656;50.096;20.014;2023-06-24T09:07:26;99376.77;;;21.36;69.33
33286;BME280;19656;50.096;20.014;2023-06-24T09:12:34;99386.09;;;21.36;69.47
33286;BME280;19656;50.096;20.014;2023-06-24T09:17:44;99388.63;;;21.36;69.22
33286;BME280;19656;50.096;20.014;2023-06-24T09:22:50;99397.23;;;21.33;69.14
33286;BME280;19656;50.096;20.014;2023-06-24T09:27:53;99398.97;;;21.39;68.89
33286;BME280;19656;50.096;20.014;2023-06-24T09:32:58;99400.42;;;21.50;68.14
33286;BME280;19656;50.096;20.014;2023-06-24T09:38:02;99400.45;;;21.50;67.91
33286;BME280;19656;50.096;20.014;2023-06-24T09:43:05;99403.52;;;21.48;67.97
33286;BME280;19656;50.096;20.014;2023-06-24T09:50:46;99401.59;;;21.51;68.08
33286;BME280;19656;50.096;20.014;2023-06-24T09:55:50;99407.28;;;21.52;67.73
33286;BME280;19656;50.096;20.014;2023-06-24T10:00:54;99417.61;;;21.52;67.88
33286;BME280;19656;50.096;20.014;2023-06-24T10:05:59;99417.60;;;21.52;67.95
33286;BME280;19656;50.096;20.014;2023-06-24T10:11:02;99422.69;;;21.57;68.17
33286;BME280;19656;50.096;20.014;2023-06-24T10:16:06;99421.89;;;21.62;68.03
33286;BME280;19656;50.096;20.014;2023-06-24T10:21:10;99432.52;;;21.63;68.03
33286;BME280;19656;50.096;20.014;2023-06-24T10:26:25;99431.26;;;21.73;67.68
33286;BME280;19656;50.096;20.014;2023-06-24T10:50:51;99445.84;;;22.00;66.27
33286;BME280;19656;50.096;20.014;2023-06-24T10:55:57;99447.42;;;21.95;66.67
33286;BME280;19656;50.096;20.014;2023-06-24T11:01:07;99446.14;;;21.90;66.79
33286;BME280;19656;50.096;20.014;2023-06-24T11:06:11;99442.26;;;21.84;67.20
33286;BME280;19656;50.096;20.014;2023-06-24T11:11:19;99447.01;;;21.84;68.01
33286;BME280;19656;50.096;20.014;2023-06-24T11:16:25;99448.72;;;21.88;67.75
33286;BME280;19656;50.096;20.014;2023-06-24T11:21:30;99451.73;;;21.95;67.86
33286;BME280;19656;50.096;20.014;2023-06-24T11:26:36;99451.88;;;21.98;67.93
33286;BME280;19656;50.096;20.014;2023-06-24T11:31:44;99452.92;;;21.94;67.89
33286;BME280;19656;50.096;20.014;2023-06-24T11:36:48;99456.81;;;21.87;68.25
33286;BME280;19656;50.096;20.014;2023-06-24T11:41:52;99455.92;;;21.83;68.48
33286;BME280;19656;50.096;20.014;2023-06-24T11:50:53;99448.63;;;21.85;68.90
33286;BME280;19656;50.096;20.014;2023-06-24T11:55:57;99450.66;;;21.90;68.39
33286;BME280;19656;50.096;20.014;2023-06-24T12:01:02;99451.25;;;21.90;68.49
33286;BME280;19656;50.096;20.014;2023-06-24T12:06:06;99450.32;;;21.76;68.56
33286;BME280;19656;50.096;20.014;2023-06-24T12:11:09;99451.52;;;21.57;69.05
33286;BME280;19656;50.096;20.014;2023-06-24T12:16:13;99446.95;;;21.43;69.87
33286;BME280;19656;50.096;20.014;2023-06-24T12:21:16;99442.48;;;21.32;70.77
33286;BME280;19656;50.096;20.014;2023-06-24T12:26:19;99446.72;;;21.27;71.16
33286;BME280;19656;50.096;20.014;2023-06-24T12:31:23;99443.50;;;21.23;71.36
33286;BME280;19656;50.096;20.014;2023-06-24T12:36:28;99438.80;;;21.27;71.54
33286;BME280;19656;50.096;20.014;2023-06-24T12:41:31;99442.08;;;21.42;71.32
33286;BME280;19656;50.096;20.014;2023-06-24T12:46:36;99451.73;;;21.55;69.45
33286;BME280;19656;50.096;20.014;2023-06-24T12:51:39;99463.73;;;21.63;68.11
33286;BME280;19656;50.096;20.014;2023-06-24T12:56:44;99463.94;;;21.61;68.03
33286;BME280;19656;50.096;20.014;2023-06-24T13:01:48;99463.23;;;21.54;68.36
33286;BME280;19656;50.096;20.014;2023-06-24T13:06:51;99462.98;;;21.49;68.38
33286;BME280;19656;50.096;20.014;2023-06-24T13:11:54;99465.99;;;21.44;68.21
33286;BME280;19656;50.096;20.014;2023-06-24T13:16:58;99467.97;;;21.21;67.74
33286;BME280;19656;50.096;20.014;2023-06-24T13:22:01;99469.70;;;20.99;67.04
33286;BME280;19656;50.096;20.014;2023-06-24T13:27:04;99471.27;;;20.84;67.44
33286;BME280;19656;50.096;20.014;2023-06-24T13:32:08;99463.11;;;20.71;67.77
33286;BME280;19656;50.096;20.014;2023-06-24T13:37:12;99453.74;;;20.60;67.76
33286;BME280;19656;50.096;20.014;2023-06-24T13:42:18;99460.17;;;20.53;67.68
33286;BME280;19656;50.096;20.014;2023-06-24T13:50:45;99464.42;;;20.46;68.65
33286;BME280;19656;50.096;20.014;2023-06-24T13:55:49;99467.38;;;20.43;69.79
33286;BME280;19656;50.096;20.014;2023-06-24T14:00:52;99469.28;;;20.44;70.45
33286;BME280;19656;50.096;20.014;2023-06-24T14:05:56;99476.98;;;20.41;71.13
33286;BME280;19656;50.096;20.014;2023-06-24T14:11:00;99482.72;;;20.45;71.57
33286;BME280;19656;50.096;20.014;2023-06-24T14:16:04;99484.91;;;20.45;71.92
33286;BME280;19656;50.096;20.014;2023-06-24T14:21:07;99482.99;;;20.40;72.04
33286;BME280;19656;50.096;20.014;2023-06-24T14:26:30;99488.36;;;20.43;72.56
33286;BME280;19656;50.096;20.014;2023-06-24T14:31:33;99490.41;;;20.50;72.54
33286;BME280;19656;50.096;20.014;2023-06-24T14:36:37;99489.46;;;20.54;72.62
33286;BME280;19656;50.096;20.014;2023-06-24T14:41:40;99492.12;;;20.60;73.05
33286;BME280;19656;50.096;20.014;2023-06-24T14:46:51;99490.10;;;20.73;73.01
33286;BME280;19656;50.096;20.014;2023-06-24T14:51:54;99490.09;;;20.83;72.73
33286;BME280;19656;50.096;20.014;2023-06-24T14:56:58;99489.54;;;20.83;72.20
33286;BME280;19656;50.096;20.014;2023-06-24T15:02:30;99492.23;;;20.87;71.71
33286;BME280;19656;50.096;20.014;2023-06-24T15:07:34;99495.81;;;20.81;70.58
33286;BME280;19656;50.096;20.014;2023-06-24T15:12:38;99494.84;;;20.71;70.18
33286;BME280;19656;50.096;20.014;2023-06-24T15:17:43;99503.66;;;20.64;70.01
33286;BME280;19656;50.096;20.014;2023-06-24T15:22:48;99505.33;;;20.54;69.87
33286;BME280;19656;50.096;20.014;2023-06-24T15:27:51;99502.51;;;20.42;69.92
33286;BME280;19656;50.096;20.014;2023-06-24T15:32:54;99500.11;;;20.31;70.13
33286;BME280;19656;50.096;20.014;2023-06-24T15:37:58;99498.73;;;20.26;70.49
33286;BME280;19656;50.096;20.014;2023-06-24T15:43:01;99495.02;;;20.22;70.38
33286;BME280;19656;50.096;20.014;2023-06-24T15:48:05;99491.25;;;20.12;70.49
33286;BME280;19656;50.096;20.014;2023-06-24T15:53:09;99491.89;;;20.03;70.93
33286;BME280;19656;50.096;20.014;2023-06-24T15:58:12;99492.80;;;20.00;71.09
33286;BME280;19656;50.096;20.014;2023-06-24T16:03:15;99493.84;;;20.10;71.16
33286;BME280;19656;50.096;20.014;2023-06-24T16:08:19;99488.02;;;20.14;70.86
33286;BME280;19656;50.096;20.014;2023-06-24T16:13:24;99489.75;;;20.13;70.78
33286;BME280;19656;50.096;20.014;2023-06-24T16:18:27;99491.63;;;20.12;71.31
33286;BME280;19656;50.096;20.014;2023-06-24T16:23:31;99499.27;;;20.11;71.10
33286;BME280;19656;50.096;20.014;2023-06-24T16:28:34;99497.33;;;20.05;71.32
33286;BME280;19656;50.096;20.014;2023-06-24T16:33:37;99500.56;;;20.05;71.18
33286;BME280;19656;50.096;20.014;2023-06-24T16:38:41;99503.84;;;20.01;71.12
33286;BME280;19656;50.096;20.014;2023-06-24T16:43:47;99506.20;;;19.93;71.01
33286;BME280;19656;50.096;20.014;2023-06-24T16:48:50;99514.38;;;19.85;71.53
33286;BME280;19656;50.096;20.014;2023-06-24T16:53:54;99514.80;;;19.74;71.57
33286;BME280;19656;50.096;20.014;2023-06-24T16:58:57;99515.23;;;19.72;71.98
33286;BME280;19656;50.096;20.014;2023-06-24T17:04:01;99516.42;;;19.71;72.05
33286;BME280;19656;50.096;20.014;2023-06-24T17:09:04;99513.52;;;19.67;71.35
33286;BME280;19656;50.096;20.014;2023-06-24T17:14:08;99511.33;;;19.59;70.65
33286;BME280;19656;50.096;20.014;2023-06-24T17:19:11;99510.81;;;19.53;70.58
33286;BME280;19656;50.096;20.014;2023-06-24T17:24:16;99516.33;;;19.45;69.85
33286;BME280;19656;50.096;20.014;2023-06-24T17:29:19;99513.05;;;19.40;69.38
33286;BME280;19656;50.096;20.014;2023-06-24T17:34:24;99514.88;;;19.34;69.59
33286;BME280;19656;50.096;20.014;2023-06-24T17:39:28;99507.57;;;19.21;70.49
33286;BME280;19656;50.096;20.014;2023-06-24T17:44:31;99502.65;;;19.16;70.71
33286;BME280;19656;50.096;20.014;2023-06-24T17:49:34;99500.29;;;19.12;70.86
33286;BME280;19656;50.096;20.014;2023-06-24T17:54:37;99499.39;;;19.06;70.85
33286;BME280;19656;50.096;20.014;2023-06-24T17:59:41;99497.44;;;18.98;71.99
33286;BME280;19656;50.096;20.014;2023-06-24T18:04:45;99501.05;;;18.87;71.91
33286;BME280;19656;50.096;20.014;2023-06-24T18:09:48;99498.11;;;18.90;72.03
33286;BME280;19656;50.096;20.014;2023-06-24T18:14:51;99488.45;;;18.88;71.90
33286;BME280;19656;50.096;20.014;2023-06-24T18:19:55;99484.17;;;18.85;71.93
33286;BME280;19656;50.096;20.014;2023-06-24T18:25:04;99487.13;;;18.80;71.76
33286;BME280;19656;50.096;20.014;2023-06-24T18:30:08;99490.11;;;18.73;71.85
33286;BME280;19656;50.096;20.014;2023-06-24T18:35:13;99492.63;;;18.71;72.03
33286;BME280;19656;50.096;20.014;2023-06-24T18:40:17;99489.26;;;18.66;71.90
33286;BME280;19656;50.096;20.014;2023-06-24T18:45:20;99485.57;;;18.63;71.91
33286;BME280;19656;50.096;20.014;2023-06-24T18:50:25;99484.34;;;18.59;72.62
33286;BME280;19656;50.096;20.014;2023-06-24T18:55:29;99485.05;;;18.67;73.52
33286;BME280;19656;50.096;20.014;2023-06-24T19:00:33;99490.23;;;18.78;73.34
33286;BME280;19656;50.096;20.014;2023-06-24T19:05:37;99487.05;;;18.87;74.43
33286;BME280;19656;50.096;20.014;2023-06-24T19:10:41;99485.51;;;19.46;75.02
33286;BME280;19656;50.096;20.014;2023-06-24T19:15:44;99479.20;;;19.70;71.49
33286;BME280;19656;50.096;20.014;2023-06-24T19:20:47;99486.04;;;19.38;71.28
33286;BME280;19656;50.096;20.014;2023-06-24T19:25:51;99488.96;;;19.20;71.15
33286;BME280;19656;50.096;20.014;2023-06-24T19:30:54;99489.08;;;19.03;70.97
33286;BME280;19656;50.096;20.014;2023-06-24T19:35:57;99496.78;;;18.91;71.25
33286;BME280;19656;50.096;20.014;2023-06-24T19:41:01;99490.81;;;18.83;71.55
33286;BME280;19656;50.096;20.014;2023-06-24T19:46:04;99492.23;;;18.82;71.91
33286;BME280;19656;50.096;20.014;2023-06-24T19:51:08;99498.07;;;18.85;71.98
33286;BME280;19656;50.096;20.014;2023-06-24T19:56:12;99494.14;;;18.84;71.84
33286;BME280;19656;50.096;20.014;2023-06-24T22:05:30;99475.39;;;17.92;74.18
33286;BME280;19656;50.096;20.014;2023-06-24T22:10:38;99480.85;;;17.85;74.36
33286;BME280;19656;50.096;20.014;2023-06-24T22:15:41;99475.92;;;17.80;74.50
33286;BME280;19656;50.096;20.014;2023-06-24T22:20:45;99472.95;;;17.72;74.77
33286;BME280;19656;50.096;20.014;2023-06-24T22:25:48;99471.16;;;17.65;74.98
33286;BME280;19656;50.096;20.014;2023-06-24T22:30:51;99470.68;;;17.63;75.17
33286;BME280;19656;50.096;20.014;2023-06-24T22:35:55;99467.17;;;17.58;75.30
33286;BME280;19656;50.096;20.014;2023-06-24T22:40:58;99461.79;;;17.58;75.51
33286;BME280;19656;50.096;20.014;2023-06-24T22:46:02;99463.77;;;17.56;75.59
33286;BME280;19656;50.096;20.014;2023-06-24T22:51:06;99462.17;;;17.55;75.80
33286;BME280;19656;50.096;20.014;2023-06-24T22:56:09;99455.23;;;17.55;75.72
33286;BME280;19656;50.096;20.014;2023-06-24T23:01:13;99454.53;;;17.52;75.79
33286;BME280;19656;50.096;20.014;2023-06-24T23:06:16;99445.11;;;17.49;75.99
33286;BME280;19656;50.096;20.014;2023-06-24T23:11:20;99442.15;;;17.46;76.32
33286;BME280;19656;50.096;20.014;2023-06-24T23:16:23;99436.98;;;17.45;76.36
33286;BME280;19656;50.096;20.014;2023-06-24T23:21:28;99435.66;;;17.44;76.45
33286;BME280;19656;50.096;20.014;2023-06-24T23:26:35;99433.85;;;17.44;76.77
33286;BME280;19656;50.096;20.014;2023-06-24T23:31:43;99433.45;;;17.45;76.86
33286;BME280;19656;50.096;20.014;2023-06-24T23:36:47;99431.96;;;17.45;76.83
33286;BME280;19656;50.096;20.014;2023-06-24T23:41:51;99429.03;;;17.50;77.15
33286;BME280;19656;50.096;20.014;2023-06-24T23:46:54;99429.46;;;17.52;77.02
33286;BME280;19656;50.096;20.014;2023-06-24T23:51:58;99419.86;;;17.50;77.20
33286;BME280;19656;50.096;20.014;2023-06-24T23:57:01;99420.47;;;17.50;77.22
